Time;durP1;ratioP1;P1;durP2;ratioP2;P2;SDS_P1;SDS_P2;PMS_P1;PMS_P2;Temp;Humidity;BMP_temperature;BMP_pressure;BME280_temperature;BME280_humidity;BME280_pressure;Samples;Min_cycle;Max_cycle;Signal;HPM_P1;HPM_P2
2022/10/12 00:00:45;;;;;;;0.60;0.60;;;8.20;99.90;8.70;102238.00;;;;5021036;28;20196;-68
2022/10/12 00:03:11;;;;;;;0.80;0.80;;;8.20;99.90;8.30;102254.00;;;;5021678;28;20200;-68
2022/10/12 00:05:40;;;;;;;0.70;0.70;;;8.10;99.90;8.40;102252.00;;;;5037844;28;20711;-68
2022/10/12 00:08:12;;;;;;;0.70;0.70;;;7.90;99.90;8.60;102252.00;;;;5021838;28;20192;-68
2022/10/12 00:10:43;;;;;;;3.03;2.93;;;8.00;99.90;8.80;102244.00;;;;5021034;28;20193;-68
2022/10/12 00:13:09;;;;;;;0.70;0.70;;;8.30;99.90;8.70;102251.00;;;;5055543;28;20739;-68
2022/10/12 00:15:38;;;;;;;0.70;0.70;;;8.20;99.90;8.50;102247.00;;;;5037098;28;20547;-68
2022/10/12 00:18:04;;;;;;;0.80;0.80;;;8.10;99.90;8.80;102255.00;;;;5037512;28;20197;-68
2022/10/12 00:20:33;;;;;;;0.60;0.60;;;8.20;99.90;8.80;102228.00;;;;5037594;28;20220;-68
2022/10/12 00:22:59;;;;;;;0.60;0.60;;;8.20;99.90;8.60;102253.00;;;;5055412;28;20182;-67
2022/10/12 00:25:25;;;;;;;4.40;4.30;;;8.20;99.90;8.50;102253.00;;;;5055395;28;20250;-68
2022/10/12 00:27:54;;;;;;;1.33;1.33;;;8.10;99.90;9.00;102256.00;;;;5021051;28;20188;-68
2022/10/12 00:30:20;;;;;;;0.60;0.60;;;8.30;99.90;8.90;102253.00;;;;5054624;28;20229;-68
2022/10/12 00:32:46;;;;;;;0.70;0.70;;;8.30;99.90;9.10;102258.00;;;;5020666;28;20223;-68
2022/10/12 00:35:11;;;;;;;0.60;0.60;;;8.50;99.90;8.70;102259.00;;;;5037458;28;20268;-68
2022/10/12 00:37:37;;;;;;;0.70;0.70;;;8.40;99.90;8.50;102260.00;;;;5037450;28;20191;-67
2022/10/12 00:40:05;;;;;;;1.47;1.47;;;8.10;99.90;8.90;102230.00;;;;5020668;28;20184;-68
2022/10/12 00:42:33;;;;;;;0.70;0.70;;;8.20;99.90;9.00;102258.00;;;;5054817;28;20543;-68
2022/10/12 00:44:59;;;;;;;0.70;0.70;;;8.40;99.90;8.90;102256.00;;;;5020282;28;20178;-68
2022/10/12 00:47:37;;;;;;;0.83;0.83;;;8.40;99.90;7.70;102260.00;;;;5020626;28;20187;-68
2022/10/12 00:50:14;;;;;;;0.60;0.60;;;8.10;99.90;8.30;102226.00;;;;5020598;28;20177;-68
2022/10/12 00:52:56;;;;;;;0.60;0.60;;;7.90;99.90;8.30;102247.00;;;;5054441;28;20663;-68
2022/10/12 00:55:24;;;;;;;1.23;1.23;;;8.00;99.90;7.80;102251.00;;;;5053572;28;20180;-68
2022/10/12 00:57:53;;;;;;;0.70;0.70;;;7.80;99.90;7.90;102253.00;;;;5036764;28;20232;-67
2022/10/12 01:00:20;;;;;;;0.80;0.80;;;7.60;99.90;7.90;102254.00;;;;5054763;28;20184;-68
2022/10/12 01:02:49;;;;;;;0.70;0.70;;;7.60;99.90;8.30;102255.00;;;;5036531;28;20195;-68
2022/10/12 01:05:16;;;;;;;0.70;0.70;;;7.70;99.90;8.10;102253.00;;;;5036766;28;20257;-68
2022/10/12 01:07:50;;;;;;;0.70;0.70;;;7.70;99.90;8.10;102243.00;;;;5036983;28;20165;-68
2022/10/12 01:10:17;;;;;;;1.17;1.17;;;7.60;99.90;8.50;102247.00;;;;5036611;28;20176;-69
2022/10/12 01:12:45;;;;;;;0.60;0.60;;;7.80;99.90;8.40;102249.00;;;;5019870;28;20208;-68
2022/10/12 01:15:12;;;;;;;0.60;0.60;;;8.00;99.90;8.00;102252.00;;;;5054399;28;20575;-68
2022/10/12 01:17:59;;;;;;;0.77;0.77;;;7.70;99.90;8.10;102227.00;;;;5036145;28;20184;-68
2022/10/12 01:21:19;;;;;;;0.70;0.70;;;7.60;99.90;8.10;102246.00;;;;5054174;28;20222;-68
2022/10/12 01:24:29;;;;;;;0.70;0.70;;;7.60;99.90;8.00;102244.00;;;;5025831;28;20285;-68
2022/10/12 01:27:36;;;;;;;0.60;0.60;;;7.50;99.90;8.20;102242.00;;;;5036092;28;20190;-68
2022/10/12 01:30:14;;;;;;;1.33;1.33;;;7.70;99.90;8.00;102209.00;;;;5019802;28;20326;-68
2022/10/12 01:33:01;;;;;;;0.70;0.70;;;7.60;99.90;8.20;102225.00;;;;5035631;28;20211;-68
2022/10/12 01:35:47;;;;;;;0.70;0.70;;;7.70;99.90;7.90;102234.00;;;;5036178;28;20236;-68
2022/10/12 01:38:19;;;;;;;0.67;0.67;;;7.50;99.90;8.00;102231.00;;;;5019888;28;20183;-68
2022/10/12 01:41:09;;;;;;;1.10;1.10;;;7.50;99.90;8.20;102233.00;;;;5053969;28;20207;-68
2022/10/12 01:43:42;;;;;;;7.43;7.13;;;7.50;99.90;8.20;102222.00;;;;5035967;28;20543;-68
2022/10/12 01:46:20;;;;;;;0.70;0.70;;;7.70;99.90;8.00;102224.00;;;;5036129;28;20187;-68
2022/10/12 01:48:51;;;;;;;0.70;0.70;;;7.70;99.90;7.70;102213.00;;;;5035684;28;20184;-68
2022/10/12 01:51:34;;;;;;;0.60;0.60;;;7.40;99.90;7.70;102219.00;;;;5035785;28;20188;-68
2022/10/12 01:54:51;;;;;;;0.80;0.80;;;7.30;99.90;8.10;102219.00;;;;5053442;28;20176;-68
2022/10/12 01:57:48;;;;;;;0.80;0.80;;;7.40;99.90;8.00;102216.00;;;;5035410;28;20192;-68
2022/10/12 02:00:16;;;;;;;0.70;0.70;;;7.50;99.90;7.80;102208.00;;;;5035976;28;20524;-68
2022/10/12 02:03:19;;;;;;;0.70;0.70;;;7.40;99.90;8.20;102207.00;;;;5053223;28;20718;-68
2022/10/12 02:05:53;;;;;;;0.70;0.70;;;7.60;99.90;8.30;102208.00;;;;5018993;28;20277;-68
2022/10/12 02:08:49;;;;;;;1.20;1.20;;;7.80;99.90;8.20;102199.00;;;;5036064;28;20738;-68
2022/10/12 02:11:20;;;;;;;0.70;0.70;;;7.80;99.90;7.80;102191.00;;;;5035402;28;20659;-68
2022/10/12 02:14:05;;;;;;;0.70;0.70;;;7.50;99.90;7.70;102187.00;;;;5019010;28;20174;-68
2022/10/12 02:16:41;;;;;;;0.70;0.70;;;7.40;99.90;8.00;102145.00;;;;5035518;28;20195;-68
2022/10/12 02:19:12;;;;;;;0.70;0.70;;;7.40;99.90;7.80;102145.00;;;;5035443;28;20201;-68
2022/10/12 02:21:39;;;;;;;0.80;0.80;;;7.40;99.90;7.80;102150.00;;;;5035590;28;20663;-68
2022/10/12 02:24:09;;;;;;;0.63;0.63;;;7.30;99.90;7.80;102185.00;;;;5035418;28;20584;-68
2022/10/12 02:26:39;;;;;;;2.13;2.10;;;7.30;99.90;7.90;102178.00;;;;5019150;28;20198;-68
2022/10/12 02:29:23;;;;;;;0.70;0.70;;;7.40;99.90;7.90;102172.00;;;;5018870;28;20595;-68
2022/10/12 02:32:18;;;;;;;0.70;0.70;;;7.50;99.90;7.80;102142.00;;;;5018914;28;20250;-68
2022/10/12 02:34:55;;;;;;;0.70;0.70;;;7.30;99.90;7.80;102148.00;;;;5034347;28;20196;-68
2022/10/12 02:37:48;;;;;;;0.80;0.80;;;7.30;99.90;8.10;102178.00;;;;5019011;28;20262;-68
2022/10/12 02:40:43;;;;;;;0.80;0.80;;;7.40;99.90;7.70;102169.00;;;;5031081;28;20188;-68
2022/10/12 02:43:39;;;;;;;4.73;4.63;;;7.40;99.90;7.90;102168.00;;;;5035279;28;20189;-68
2022/10/12 02:46:08;;;;;;;0.70;0.70;;;7.40;99.90;7.80;102156.00;;;;5018844;28;20192;-67
2022/10/12 02:48:36;;;;;;;0.70;0.70;;;7.40;99.90;7.90;102153.00;;;;5035306;28;20534;-67
2022/10/12 02:51:05;;;;;;;0.70;0.70;;;7.30;99.90;7.90;102158.00;;;;5035398;28;20187;-67
2022/10/12 02:53:31;;;;;;;0.70;0.70;;;7.40;99.90;7.80;102125.00;;;;5052815;28;20227;-68
2022/10/12 02:56:09;;;;;;;0.80;0.80;;;7.30;99.90;8.00;102166.00;;;;5035182;28;20175;-68
2022/10/12 02:58:35;;;;;;;0.70;0.70;;;7.40;99.90;7.80;102157.00;;;;5052966;28;20187;-68
2022/10/12 03:01:01;;;;;;;0.80;0.80;;;7.30;99.90;7.90;102154.00;;;;5035033;28;20181;-68
2022/10/12 03:03:27;;;;;;;0.80;0.80;;;7.40;99.90;7.80;102156.00;;;;5034970;28;20960;-68
2022/10/12 03:05:53;;;;;;;0.70;0.70;;;7.40;99.90;7.90;102157.00;;;;5018750;28;20193;-68
2022/10/12 03:08:19;;;;;;;0.70;0.70;;;7.40;99.90;7.90;102163.00;;;;5018426;28;20182;-68
2022/10/12 03:10:45;;;;;;;0.70;0.70;;;7.40;99.90;8.00;102153.00;;;;5018625;28;20242;-68
2022/10/12 03:13:11;;;;;;;0.60;0.60;;;7.50;99.90;8.10;102153.00;;;;5035059;28;20209;-68
2022/10/12 03:15:37;;;;;;;0.70;0.70;;;7.50;99.90;8.10;102154.00;;;;5035011;28;20189;-67
2022/10/12 03:18:03;;;;;;;0.70;0.70;;;7.70;99.90;8.10;102116.00;;;;5018980;28;20698;-68
2022/10/12 03:20:29;;;;;;;0.70;0.70;;;7.60;99.90;8.10;102160.00;;;;5038543;28;20228;-68
2022/10/12 03:22:55;;;;;;;0.70;0.70;;;7.70;99.90;8.20;102152.00;;;;5038634;28;20641;-68
2022/10/12 03:25:21;;;;;;;1.80;1.70;;;7.70;99.90;8.30;102162.00;;;;5021884;28;20243;-67
2022/10/12 03:27:47;;;;;;;0.60;0.60;;;7.70;99.90;8.30;102164.00;;;;5039012;28;20264;-68
2022/10/12 03:30:13;;;;;;;0.67;0.67;;;7.80;99.90;8.40;102165.00;;;;5021981;28;20193;-68
2022/10/12 03:32:39;;;;;;;0.70;0.70;;;7.70;99.90;8.70;102158.00;;;;5021940;28;20210;-68
2022/10/12 03:35:06;;;;;;;0.60;0.60;;;8.00;99.90;8.50;102113.00;;;;5021956;28;20213;-67
2022/10/12 03:37:33;;;;;;;0.60;0.60;;;8.10;99.90;8.40;102162.00;;;;5038324;28;20632;-68
2022/10/12 03:39:58;;;;;;;0.70;0.70;;;8.00;99.90;8.20;102168.00;;;;5038138;28;20181;-67
2022/10/12 03:42:24;;;;;;;7.27;7.00;;;7.80;99.90;8.40;102150.00;;;;5038430;28;20204;-67
2022/10/12 03:44:50;;;;;;;0.70;0.70;;;7.80;99.90;8.50;102150.00;;;;5021588;28;20186;-67
2022/10/12 03:47:16;;;;;;;0.60;0.60;;;7.90;99.90;8.10;102151.00;;;;5021864;28;20186;-67
2022/10/12 03:49:42;;;;;;;0.60;0.60;;;7.80;99.90;7.90;102150.00;;;;5038106;28;20604;-68
2022/10/12 03:52:08;;;;;;;0.60;0.60;;;7.70;99.90;7.80;102158.00;;;;5021318;28;20679;-67
2022/10/12 03:54:34;;;;;;;0.97;0.97;;;7.60;99.90;7.60;102147.00;;;;5021176;28;20196;-68
2022/10/12 03:57:00;;;;;;;0.50;0.50;;;7.40;99.90;8.00;102148.00;;;;5021703;28;20188;-67
2022/10/12 03:59:25;;;;;;;0.60;0.60;;;7.50;99.90;8.20;102151.00;;;;5021660;28;20186;-68
2022/10/12 04:01:51;;;;;;;0.60;0.60;;;7.60;99.90;8.30;102150.00;;;;5021262;28;20194;-67
2022/10/12 04:04:17;;;;;;;0.60;0.60;;;7.70;99.90;8.30;102151.00;;;;5021345;28;20193;-67
2022/10/12 04:06:43;;;;;;;0.60;0.60;;;7.70;99.90;8.20;102149.00;;;;5055188;28;20212;-68
2022/10/12 04:09:09;;;;;;;0.60;0.60;;;7.70;99.90;8.40;102153.00;;;;5021166;28;20229;-67
2022/10/12 04:11:35;;;;;;;0.60;0.60;;;7.80;99.90;8.50;102149.00;;;;5021334;28;20297;-68
2022/10/12 04:14:01;;;;;;;0.60;0.60;;;8.00;99.90;8.40;102139.00;;;;5021557;28;20291;-68
2022/10/12 04:16:27;;;;;;;0.60;0.60;;;8.00;99.90;8.20;102145.00;;;;5037538;28;20689;-68
2022/10/12 04:18:53;;;;;;;0.50;0.50;;;7.80;99.90;8.40;102139.00;;;;5038055;28;20178;-68
2022/10/12 04:21:20;;;;;;;0.50;0.50;;;7.80;99.90;8.50;102129.00;;;;5020716;28;20183;-67
2022/10/12 04:23:46;;;;;;;0.60;0.60;;;7.90;99.90;7.80;102139.00;;;;5020755;28;20190;-69
2022/10/12 04:26:12;;;;;;;1.17;1.17;;;7.70;99.90;7.10;102135.00;;;;5020970;28;20191;-67
2022/10/12 04:28:38;;;;;;;0.50;0.50;;;7.40;99.90;7.40;102138.00;;;;5020929;28;20186;-68
2022/10/12 04:31:04;;;;;;;0.60;0.60;;;7.30;99.90;7.70;102140.00;;;;5036934;28;20182;-67
2022/10/12 04:33:30;;;;;;;0.70;0.70;;;7.30;99.90;7.80;102126.00;;;;5020640;28;20679;-67
2022/10/12 04:35:55;;;;;;;0.87;0.87;;;7.30;99.90;8.20;102139.00;;;;5036885;28;20234;-67
2022/10/12 04:38:21;;;;;;;0.70;0.70;;;7.50;99.90;7.90;102130.00;;;;5020580;28;20313;-67
2022/10/12 04:40:50;;;;;;;0.70;0.70;;;7.50;99.90;7.90;102122.00;;;;5020604;28;20186;-67
2022/10/12 04:43:16;;;;;;;0.60;0.60;;;7.40;99.90;8.10;102127.00;;;;5037253;28;20631;-67
2022/10/12 04:45:42;;;;;;;0.70;0.70;;;7.60;99.90;7.90;102132.00;;;;5054771;28;20174;-67
2022/10/12 04:48:08;;;;;;;0.50;0.50;;;7.50;99.90;7.70;102138.00;;;;5020507;28;20193;-67
2022/10/12 04:50:35;;;;;;;0.70;0.70;;;7.40;99.90;7.70;102125.00;;;;5020365;28;20646;-67
2022/10/12 04:53:01;;;;;;;2.23;2.13;;;7.30;99.90;7.60;102138.00;;;;5054667;28;20652;-67
2022/10/12 04:55:26;;;;;;;0.70;0.70;;;7.20;99.90;7.90;102122.00;;;;5055208;28;20183;-67
2022/10/12 04:57:52;;;;;;;0.50;0.50;;;7.20;99.90;7.90;102137.00;;;;5020439;28;20219;-67
2022/10/12 05:00:19;;;;;;;0.50;0.50;;;7.30;99.90;7.80;102126.00;;;;5020371;28;20186;-67
2022/10/12 05:02:44;;;;;;;0.50;0.50;;;7.40;99.90;8.10;102122.00;;;;5036598;28;20188;-67
2022/10/12 05:05:16;;;;;;;0.73;0.73;;;7.50;99.90;7.80;102129.00;;;;5036484;28;20550;-67
2022/10/12 05:07:41;;;;;;;0.80;0.80;;;7.40;99.90;7.90;102127.00;;;;5036547;28;20187;-67
2022/10/12 05:10:08;;;;;;;0.80;0.80;;;7.40;99.90;7.60;102098.00;;;;5020198;28;20645;-67
2022/10/12 05:12:34;;;;;;;2.00;2.00;;;7.30;99.90;7.50;102114.00;;;;5036664;28;20242;-68
2022/10/12 05:15:01;;;;;;;0.70;0.70;;;7.20;99.90;7.70;102118.00;;;;5037098;28;20207;-67
2022/10/12 05:17:27;;;;;;;0.80;0.80;;;7.20;99.90;7.70;102091.00;;;;5036457;28;20212;-67
2022/10/12 05:19:53;;;;;;;0.90;0.90;;;7.20;99.90;7.90;102117.00;;;;5053862;28;20174;-67
2022/10/12 05:22:19;;;;;;;0.90;0.90;;;7.20;99.90;7.90;102114.00;;;;5036805;28;20183;-67
2022/10/12 05:24:48;;;;;;;0.80;0.80;;;7.30;99.90;7.90;102120.00;;;;5019949;28;20179;-67
2022/10/12 05:27:34;;;;;;;0.87;0.87;;;7.40;99.90;7.70;102120.00;;;;5036211;28;20296;-67
2022/10/12 05:30:00;;;;;;;1.27;1.27;;;7.30;99.90;7.90;102125.00;;;;5053865;28;20227;-67
2022/10/12 05:32:26;;;;;;;0.90;0.90;;;7.30;99.90;8.00;102117.00;;;;5036031;28;20211;-67
2022/10/12 05:34:53;;;;;;;0.80;0.80;;;7.30;99.90;8.00;102108.00;;;;5019535;28;20187;-67
2022/10/12 05:37:19;;;;;;;0.70;0.70;;;7.40;99.90;7.90;102114.00;;;;5036245;28;20631;-67
2022/10/12 05:39:45;;;;;;;0.80;0.80;;;7.40;99.90;7.90;102113.00;;;;5019475;28;20317;-67
2022/10/12 05:42:14;;;;;;;0.80;0.80;;;7.50;99.90;7.90;102083.00;;;;5035593;28;20573;-67
2022/10/12 05:44:40;;;;;;;0.60;0.60;;;7.40;99.90;7.90;102120.00;;;;5053957;28;20179;-67
2022/10/12 05:47:06;;;;;;;0.70;0.70;;;7.50;99.90;7.50;102122.00;;;;5036186;28;20533;-67
2022/10/12 05:49:32;;;;;;;0.80;0.80;;;7.20;99.90;7.40;102117.00;;;;5019490;28;20193;-67
2022/10/12 05:51:58;;;;;;;0.90;0.90;;;7.10;99.90;7.50;102120.00;;;;5035951;28;20206;-67
2022/10/12 05:54:24;;;;;;;0.90;0.90;;;7.00;99.90;7.50;102115.00;;;;5019383;28;20556;-68
2022/10/12 05:56:50;;;;;;;0.77;0.77;;;7.00;99.90;7.50;102122.00;;;;5035693;28;20541;-68
2022/10/12 05:59:16;;;;;;;0.60;0.60;;;7.10;99.90;7.00;102111.00;;;;5019307;28;20180;-67
2022/10/12 06:01:42;;;;;;;0.70;0.70;;;6.80;99.90;7.30;102112.00;;;;5018814;28;20187;-66
2022/10/12 06:04:15;;;;;;;0.80;0.80;;;6.80;99.90;7.60;102084.00;;;;5019288;28;20203;-66
2022/10/12 06:06:41;;;;;;;0.80;0.80;;;7.00;99.90;7.80;102121.00;;;;5053608;28;20176;-66
2022/10/12 06:09:07;;;;;;;0.80;0.80;;;7.20;99.90;7.70;102081.00;;;;5019188;28;20231;-67
2022/10/12 06:11:33;;;;;;;0.70;0.70;;;7.20;99.90;8.10;102129.00;;;;5035586;28;20187;-67
2022/10/12 06:13:59;;;;;;;1.00;1.00;;;7.30;99.90;8.10;102107.00;;;;5035324;28;20260;-67
2022/10/12 06:16:24;;;;;;;1.23;1.23;;;7.40;99.90;8.10;102115.00;;;;5018904;28;20287;-67
2022/10/12 06:18:50;;;;;;;0.80;0.80;;;7.50;99.90;8.00;102105.00;;;;5035418;28;20181;-67
2022/10/12 06:21:21;;;;;;;0.80;0.80;;;7.50;99.90;7.80;102109.00;;;;5035525;28;20249;-66
2022/10/12 06:23:49;;;;;;;0.80;0.80;;;7.50;99.90;7.60;102102.00;;;;5035655;28;20538;-67
2022/10/12 06:26:15;;;;;;;0.70;0.70;;;7.30;99.90;7.20;102114.00;;;;5035643;28;20229;-67
2022/10/12 06:28:42;;;;;;;0.60;0.60;;;7.10;99.90;7.40;102112.00;;;;5053235;28;20187;-67
2022/10/12 06:31:09;;;;;;;0.80;0.80;;;7.10;99.90;7.00;102116.00;;;;5035312;28;20180;-67
2022/10/12 06:33:35;;;;;;;1.93;1.83;;;6.90;99.90;7.90;102106.00;;;;5018699;28;20225;-67
2022/10/12 06:36:02;;;;;;;0.70;0.70;;;7.20;99.90;8.10;102112.00;;;;5019045;28;20530;-67
2022/10/12 06:38:28;;;;;;;1.00;1.00;;;7.50;99.90;8.00;102110.00;;;;5019066;28;20192;-67
2022/10/12 06:40:54;;;;;;;0.80;0.80;;;7.50;99.90;8.10;102105.00;;;;5018658;28;20245;-66
2022/10/12 06:43:21;;;;;;;0.80;0.80;;;7.50;99.90;8.20;102102.00;;;;5035121;28;20173;-66
2022/10/12 06:45:48;;;;;;;0.90;0.90;;;7.60;99.90;8.50;102102.00;;;;5034915;28;20168;-69
2022/10/12 06:48:14;;;;;;;1.23;1.23;;;7.80;99.90;8.40;102117.00;;;;5035164;28;20582;-66
2022/10/12 06:50:40;;;;;;;1.33;1.33;;;7.90;99.90;8.00;102105.00;;;;5035117;28;20181;-67
2022/10/12 06:53:06;;;;;;;0.80;0.80;;;7.70;99.90;8.30;102097.00;;;;5019004;28;20622;-67
2022/10/12 06:55:32;;;;;;;0.80;0.80;;;7.80;99.90;8.60;102107.00;;;;5039081;28;20188;-70
2022/10/12 06:58:01;;;;;;;0.80;0.80;;;8.00;99.90;8.60;102107.00;;;;5039303;28;20249;-70
2022/10/12 07:00:27;;;;;;;0.70;0.70;;;8.10;99.90;8.90;102073.00;;;;5022327;28;20184;-70
2022/10/12 07:03:11;;;;;;;0.80;0.80;;;8.30;99.90;8.50;102071.00;;;;5056741;28;20186;-69
2022/10/12 07:05:36;;;;;;;0.90;0.90;;;8.10;99.90;8.90;102098.00;;;;5038856;28;20273;-69
2022/10/12 07:08:11;;;;;;;0.80;0.80;;;8.40;99.90;9.10;102067.00;;;;5038836;28;20220;-69
2022/10/12 07:10:37;;;;;;;0.70;0.70;;;8.60;99.90;9.20;102105.00;;;;5056807;28;20208;-69
2022/10/12 07:13:03;;;;;;;1.37;1.37;;;8.70;99.90;9.70;102099.00;;;;5038858;28;20206;-69
2022/10/12 07:15:29;;;;;;;1.13;1.13;;;9.10;99.90;9.60;102087.00;;;;5038643;28;20596;-69
2022/10/12 07:17:55;;;;;;;1.73;1.67;;;9.20;99.90;9.40;102095.00;;;;5039166;28;20178;-69
2022/10/12 07:20:41;;;;;;;1.00;1.00;;;9.10;99.90;9.80;102104.00;;;;5038588;28;20190;-69
2022/10/12 07:23:07;;;;;;;0.80;0.80;;;9.40;99.90;10.00;102111.00;;;;5038974;28;20178;-69
2022/10/12 07:25:32;;;;;;;2.70;2.60;;;9.40;99.90;9.30;102108.00;;;;5022159;28;20188;-69
2022/10/12 07:27:58;;;;;;;0.80;0.80;;;9.30;99.90;10.40;102117.00;;;;5038684;28;20631;-69
2022/10/12 07:30:24;;;;;;;0.90;0.90;;;9.70;99.90;10.20;102125.00;;;;5021694;28;20187;-69
2022/10/12 07:32:53;;;;;;;0.60;0.60;;;9.80;99.90;10.50;102132.00;;;;5021582;28;20226;-69
2022/10/12 07:35:19;;;;;;;0.70;0.70;;;10.00;99.90;10.90;102121.00;;;;5038672;28;20177;-69
2022/10/12 07:37:48;;;;;;;1.07;1.07;;;10.40;99.90;10.80;102094.00;;;;5056232;28;20247;-69
2022/10/12 07:40:14;;;;;;;0.60;0.60;;;10.40;99.90;10.60;102104.00;;;;5038207;28;20622;-69
2022/10/12 07:43:04;;;;;;;4.63;4.43;;;10.40;99.90;11.50;102108.00;;;;5038132;28;20189;-66
2022/10/12 07:45:30;;;;;;;0.70;0.70;;;10.70;99.90;12.20;102142.00;;;;5037612;28;20633;-66
2022/10/12 07:48:24;;;;;;;0.53;0.53;;;11.30;99.90;10.70;102139.00;;;;5021391;28;20236;-67
2022/10/12 07:50:53;;;;;;;2.60;0.60;;;11.20;99.90;10.50;102138.00;;;;5037912;28;20190;-69
2022/10/12 07:53:19;;;;;;;0.50;0.50;;;10.60;99.90;10.20;102144.00;;;;5038153;28;20217;-66
2022/10/12 07:55:44;;;;;;;0.40;0.40;;;10.40;99.90;10.60;102156.00;;;;5037815;28;20175;-69
2022/10/12 07:58:11;;;;;;;3.57;3.47;;;10.30;99.90;11.10;102143.00;;;;5038248;28;20166;-66
2022/10/12 08:00:39;;;;;;;0.27;0.27;;;10.70;99.90;11.80;102151.00;;;;5021684;28;20184;-66
2022/10/12 08:03:08;;;;;;;0.30;0.30;;;11.10;99.90;11.70;102153.00;;;;5037956;28;20190;-67
2022/10/12 08:05:36;;;;;;;0.40;0.40;;;11.30;99.90;11.90;102158.00;;;;5037680;28;20206;-67
2022/10/12 08:08:03;;;;;;;0.50;0.50;;;11.50;99.90;11.30;102116.00;;;;5038276;28;20182;-66
2022/10/12 08:10:29;;;;;;;0.20;0.20;;;11.40;99.90;11.30;102140.00;;;;5055489;28;20294;-67
2022/10/12 08:12:55;;;;;;;0.30;0.30;;;11.20;99.90;11.80;102157.00;;;;5037447;28;20303;-66
2022/10/12 08:15:21;;;;;;;0.20;0.20;;;11.40;99.90;12.20;102146.00;;;;5021482;28;20185;-66
2022/10/12 08:17:47;;;;;;;3.30;0.80;;;11.60;99.90;11.50;102153.00;;;;5021232;28;20182;-66
2022/10/12 08:20:14;;;;;;;0.20;0.20;;;11.50;99.90;11.50;102151.00;;;;5037559;28;20176;-66
2022/10/12 08:22:42;;;;;;;0.40;0.40;;;11.40;99.90;11.80;102147.00;;;;5037642;28;20183;-66
2022/10/12 08:25:08;;;;;;;0.20;0.20;;;11.40;99.90;11.60;102155.00;;;;5020811;28;20643;-66
2022/10/12 08:27:34;;;;;;;1.60;1.60;;;11.50;99.90;11.80;102157.00;;;;5037286;28;20184;-66
2022/10/12 08:30:01;;;;;;;0.20;0.20;;;11.60;99.90;11.50;102151.00;;;;5037535;28;20180;-66
2022/10/12 08:32:26;;;;;;;1.07;1.07;;;11.50;99.90;12.90;102153.00;;;;5036856;28;20217;-66
2022/10/12 08:34:55;;;;;;;1.17;1.07;;;12.10;99.90;12.10;102165.00;;;;5020846;28;20613;-66
2022/10/12 08:37:24;;;;;;;0.20;0.20;;;12.30;99.90;13.30;102166.00;;;;5020721;28;20207;-66
2022/10/12 08:40:01;;;;;;;0.20;0.20;;;12.70;99.90;14.20;102168.00;;;;5037009;28;20184;-66
2022/10/12 08:42:48;;;;;;;0.20;0.20;;;13.50;99.90;13.90;102186.00;;;;5037289;28;20181;-66
2022/10/12 08:45:21;;;;;;;0.20;0.20;;;13.30;99.90;14.00;102190.00;;;;5037023;28;20182;-66
2022/10/12 08:47:59;;;;;;;0.20;0.20;;;13.60;99.90;15.70;102207.00;;;;5054832;28;20619;-66
2022/10/12 08:50:39;;;;;;;0.37;0.37;;;14.20;99.90;16.70;102239.00;;;;5037351;28;20291;-66
2022/10/12 08:53:34;;;;;;;0.30;0.30;;;15.30;99.90;17.00;102263.00;;;;5037018;28;20203;-66
2022/10/12 08:56:00;;;;;;;1.57;1.47;;;16.00;99.90;13.30;102199.00;;;;5023268;28;20207;-66
2022/10/12 08:58:34;;;;;;;0.33;0.33;;;13.90;99.90;14.10;102210.00;;;;5037111;28;20174;-66
2022/10/12 09:01:22;;;;;;;1.10;1.10;;;13.80;99.90;13.10;102176.00;;;;5036689;28;20190;-66
2022/10/12 09:04:33;;;;;;;0.70;0.70;;;13.00;99.90;13.30;102180.00;;;;5036740;28;20186;-65
2022/10/12 09:07:19;;;;;;;0.37;0.37;;;13.00;99.90;15.10;102189.00;;;;5036651;28;20182;-66
2022/10/12 09:10:25;;;;;;;3.10;1.30;;;13.70;99.90;16.60;102230.00;;;;5036945;28;20184;-66
2022/10/12 09:13:26;;;;;;;0.40;0.40;;;15.00;99.90;15.60;102203.00;;;;5036445;28;20209;-66
2022/10/12 09:16:21;;;;;;;0.30;0.30;;;15.30;99.90;15.10;102201.00;;;;5035727;28;20280;-66
2022/10/12 09:18:56;;;;;;;0.20;0.20;;;14.80;99.90;15.10;102230.00;;;;5054621;28;20224;-66
2022/10/12 09:21:26;;;;;;;0.47;0.47;;;14.70;99.90;15.60;102218.00;;;;5036490;28;20176;-66
2022/10/12 09:23:55;;;;;;;2.67;1.20;;;14.70;99.90;15.60;102232.00;;;;5036242;28;20604;-66
2022/10/12 09:27:12;;;;;;;0.53;0.53;;;15.00;99.90;15.80;102238.00;;;;5036173;28;20256;-66
2022/10/12 09:29:38;;;;;;;5.93;1.10;;;15.20;99.90;16.50;102244.00;;;;5036324;28;20198;-66
2022/10/12 09:32:35;;;;;;;0.33;0.33;;;15.50;99.90;16.10;102247.00;;;;5035666;28;20226;-66
2022/10/12 09:35:06;;;;;;;0.10;0.10;;;15.70;99.90;15.80;102207.00;;;;5036206;28;20521;-66
2022/10/12 09:37:35;;;;;;;0.17;0.17;;;15.30;99.90;17.40;102246.00;;;;5052816;28;20660;-66
2022/10/12 09:40:02;;;;;;;0.10;0.10;;;16.00;99.90;17.70;102261.00;;;;5019286;28;20182;-67
2022/10/12 09:42:29;;;;;;;1.30;1.23;;;16.30;99.90;15.80;102228.00;;;;5035849;28;20636;-66
2022/10/12 09:45:01;;;;;;;0.40;0.40;;;15.50;99.90;16.50;102233.00;;;;5036122;28;20256;-66
2022/10/12 09:48:07;;;;;;;0.20;0.20;;;15.80;99.90;16.40;102224.00;;;;5019607;28;20179;-67
2022/10/12 09:51:00;;;;;;;0.10;0.10;;;15.90;99.90;17.00;102204.00;;;;5035831;28;20647;-66
2022/10/12 09:53:39;;;;;;;3.83;1.83;;;16.10;99.90;17.80;102213.00;;;;5035696;28;20209;-66
2022/10/12 09:56:21;;;;;;;8.87;8.20;;;16.60;99.90;16.50;102212.00;;;;5035952;28;20210;-66
2022/10/12 09:58:59;;;;;;;2.20;1.20;;;16.40;99.90;17.50;102222.00;;;;5053880;28;20521;-66
2022/10/12 10:01:32;;;;;;;0.20;0.20;;;16.60;99.90;17.90;102222.00;;;;5035872;28;20180;-66
2022/10/12 10:04:12;;;;;;;0.10;0.10;;;16.90;99.90;19.10;102245.00;;;;5035424;28;20185;-66
2022/10/12 10:06:42;;;;;;;0.33;0.33;;;17.50;99.90;18.00;102241.00;;;;5035639;28;20195;-66
2022/10/12 10:09:37;;;;;;;0.10;0.10;;;17.30;99.90;19.20;102234.00;;;;5035388;28;20204;-67
2022/10/12 10:12:23;;;;;;;0.30;0.30;;;18.00;99.90;19.50;102241.00;;;;5014766;28;20275;-67
2022/10/12 10:14:58;;;;;;;0.40;0.40;;;18.30;99.90;18.80;102247.00;;;;5035587;28;20540;-67
2022/10/12 10:17:33;;;;;;;1.50;1.40;;;18.20;99.90;18.10;102254.00;;;;5019116;28;20185;-68
2022/10/12 10:20:04;;;;;;;0.63;0.63;;;17.60;99.90;18.30;102238.00;;;;5035506;28;20542;-68
2022/10/12 10:33:39;;;;;;;2.83;1.07;;;16.90;99.90;18.70;102220.00;;;;5152167;27;20567;-67
2022/10/12 10:36:23;;;;;;;3.37;1.53;;;17.60;99.90;17.90;102221.00;;;;5113227;28;20176;-68
2022/10/12 10:39:15;;;;;;;0.20;0.20;;;17.60;99.90;18.10;102194.00;;;;5096081;28;20174;-67
2022/10/12 10:41:42;;;;;;;0.93;0.93;;;17.40;99.90;18.40;102231.00;;;;5113800;28;20209;-68
2022/10/12 10:44:53;;;;;;;0.23;0.23;;;17.50;99.90;17.70;102237.00;;;;5131382;28;20193;-67
2022/10/12 10:47:19;;;;;;;0.40;0.40;;;17.30;99.90;17.40;102231.00;;;;5096508;28;20180;-67
2022/10/12 10:50:07;;;;;;;0.60;0.60;;;16.90;99.90;17.30;102209.00;;;;5096376;28;20190;-67
2022/10/12 10:52:35;;;;;;;0.10;0.10;;;16.50;99.90;16.70;102203.00;;;;5095916;28;20288;-67
2022/10/12 10:55:08;;;;;;;0.10;0.10;;;16.40;99.90;17.20;102202.00;;;;5095779;28;20194;-67
2022/10/12 10:57:40;;;;;;;0.10;0.10;;;16.20;99.90;18.00;102208.00;;;;5131325;28;20173;-67
2022/10/12 11:00:14;;;;;;;2.43;1.80;;;16.80;99.90;18.10;102206.00;;;;5112871;28;20186;-67
2022/10/12 11:03:03;;;;;;;0.40;0.40;;;17.00;99.90;16.80;102201.00;;;;5095712;28;20242;-67
2022/10/12 11:05:58;;;;;;;0.63;0.60;;;16.80;99.90;16.50;102200.00;;;;5095709;28;20220;-67
2022/10/12 11:08:30;;;;;;;0.40;0.40;;;16.50;99.90;16.70;102189.00;;;;5057284;28;20208;-67
2022/10/12 11:11:02;;;;;;;0.37;0.37;;;16.20;99.90;17.30;102195.00;;;;5131510;28;20181;-67
2022/10/12 11:13:34;;;;;;;0.10;0.10;;;16.60;99.90;18.40;102198.00;;;;5112562;28;20216;-67
2022/10/12 11:16:30;;;;;;;1.17;1.10;;;17.00;99.90;19.50;102185.00;;;;5095483;28;20256;-68
2022/10/12 11:19:03;;;;;;;0.30;0.30;;;17.90;99.90;19.50;102207.00;;;;5112595;28;20179;-67
2022/10/12 11:21:43;;;;;;;0.30;0.30;;;18.50;99.90;19.40;102221.00;;;;5130548;28;20179;-67
2022/10/12 11:24:40;;;;;;;0.50;0.40;;;18.30;99.90;19.60;102222.00;;;;5111520;28;20417;-67
2022/10/12 11:27:55;;;;;;;1.80;1.55;;;18.60;99.90;20.90;102222.00;;;;5091109;28;20596;-67
2022/10/12 11:30:25;;;;;;;0.65;0.65;;;19.40;99.90;19.90;102229.00;;;;5096792;28;20195;-67
2022/10/12 11:33:04;;;;;;;0.67;0.33;;;19.20;99.90;19.90;102233.00;;;;5112011;28;20261;-67